Lima, OH (45807)

12:18 AM EDT on April 29, 2017 (GMT -0400)
Country Aire | | Change Station

Elev 886 ft 40.76 °N, 84.18 °W | Updated 15 seconds ago

Overcast
Overcast
55.8 °F
Feels Like 55.8 °F
N
1.3
Wind Variable Wind from East
Gusts 2.7 mph

Today
High -- | Low -- °F
--% Chance of Precip.
Yesterday
High -- | Low -- °F
Precip. -- in
Pressure 29.93 in
Visibility 10.0 miles
Clouds Overcast 6000 ft
Dew Point 54 °F
Humidity 93%
Rainfall 0.50 in
Snow Depth Not available.
6:37 AM 8:31 PM
Waxing Crescent, 10% visible
METAR KAOH 290353Z AUTO 11007KT 10SM OVC060 14/13 A2993 RMK AO2 SLP134 T01390128
Pressure 29.93 in
Visibility 10.0 miles
Clouds Overcast 6000 ft
Dew Point 54 °F
Humidity 93%
Rainfall 0.50 in
Snow Depth Not available.
6:37 AM 8:31 PM
Waxing Crescent, 10% visible
METAR KAOH 290353Z AUTO 11007KT 10SM OVC060 14/13 A2993 RMK AO2 SLP134 T01390128

Get Severe Weather Alerts

Thanks for signing up!

Be on the lookout for a verification email in your inbox.

You'll start receiving the daily forecast at 8 AM.

×

10-Day Weather Forecast

Almanac

Astronomy

Apr. 29, 2017 Rise Set
Actual Time
Civil Twilight
Nautical Twilight
Astronomical Twilight
Moon
Length of Visible Light
Length of Day
Tomorrow will be .
, % of the Moon is Illuminated

Today's Extremes

State Highs State Lows

Community

WunderPhotos

WunderBlog® & News

Nearby

Air Quality

  Air Quality AQ Index Pollutant
Not available.

Snow Depth

Station Depth Elevation

Earthquake Activity

City Distance Mag. Time & Date
Minimum magnitude displayed is 2.5.

Coastal Water Temperatures

Place Temperature

Stations

Nearby Weather Stations

Station Location Temp. Windchill Dew Point Humidity Wind Precip. Elev Updated Type
                   

Watches & Warnings

There are currently no watches in effect.